createdAt,value
2018-11-22T00:00:10.166Z,1003.73
2018-11-22T00:01:10.178Z,1003.76
2018-11-22T00:02:10.196Z,1003.75
2018-11-22T00:03:10.215Z,1003.73
2018-11-22T00:04:10.229Z,1003.69
2018-11-22T00:05:10.249Z,1003.67
2018-11-22T00:06:10.269Z,1003.69
2018-11-22T00:07:10.284Z,1003.68
2018-11-22T00:08:10.302Z,1003.66
2018-11-22T00:09:10.314Z,1003.7
2018-11-22T00:10:10.337Z,1003.69
2018-11-22T00:11:10.349Z,1003.7
2018-11-22T00:12:10.366Z,1003.67
2018-11-22T00:13:10.388Z,1003.72
2018-11-22T00:14:10.404Z,1003.72
2018-11-22T00:15:10.417Z,1003.7
2018-11-22T00:16:10.438Z,1003.7
2018-11-22T00:17:10.457Z,1003.65
2018-11-22T00:18:10.476Z,1003.67
2018-11-22T00:19:10.487Z,1003.73
2018-11-22T00:20:10.504Z,1003.73
2018-11-22T00:21:10.525Z,1003.75
2018-11-22T00:22:10.537Z,1003.73
2018-11-22T00:23:10.556Z,1003.73
2018-11-22T00:24:10.571Z,1003.73
2018-11-22T00:25:10.589Z,1003.78
2018-11-22T00:26:10.611Z,1003.77
2018-11-22T00:27:10.626Z,1003.74
2018-11-22T00:28:10.645Z,1003.77
2018-11-22T00:29:10.657Z,1003.81
2018-11-22T00:30:10.674Z,1003.78
2018-11-22T00:31:10.692Z,1003.76
2018-11-22T00:32:10.712Z,1003.76
2018-11-22T00:33:10.730Z,1003.75
2018-11-22T00:34:10.747Z,1003.79
2018-11-22T00:35:10.757Z,1003.8
2018-11-22T00:36:10.776Z,1003.78
2018-11-22T00:37:10.794Z,1003.78
2018-11-22T00:38:10.813Z,1003.8
2018-11-22T00:39:10.830Z,1003.82
2018-11-22T00:40:10.849Z,1003.85
2018-11-22T00:41:10.865Z,1003.83
2018-11-22T00:42:10.880Z,1003.85
2018-11-22T00:43:10.898Z,1003.8
2018-11-22T00:44:10.914Z,1003.82
2018-11-22T00:45:10.931Z,1003.83
2018-11-22T00:46:10.952Z,1003.82
2018-11-22T00:47:10.966Z,1003.78
2018-11-22T00:48:10.986Z,1003.8
2018-11-22T00:49:10.999Z,1003.82
2018-11-22T00:50:11.019Z,1003.85
2018-11-22T00:51:11.034Z,1003.88
2018-11-22T00:52:11.056Z,1003.8
2018-11-22T00:53:11.069Z,1003.82
2018-11-22T00:54:11.087Z,1003.81
2018-11-22T00:55:11.103Z,1003.84
2018-11-22T00:56:11.120Z,1003.83
2018-11-22T00:57:11.141Z,1003.82
2018-11-22T00:58:11.154Z,1003.82
2018-11-22T00:59:11.171Z,1003.82
2018-11-22T01:00:11.192Z,1003.81
2018-11-22T01:01:11.206Z,1003.81
2018-11-22T01:02:11.222Z,1003.79
2018-11-22T01:03:11.240Z,1003.81
2018-11-22T01:04:11.256Z,1003.78
2018-11-22T01:05:11.274Z,1003.8
2018-11-22T01:06:11.289Z,1003.79
2018-11-22T01:07:11.307Z,1003.78
2018-11-22T01:08:11.324Z,1003.78
2018-11-22T01:09:11.341Z,1003.76
2018-11-22T01:10:11.358Z,1003.82
2018-11-22T01:11:11.377Z,1003.83
2018-11-22T01:12:11.395Z,1003.81
2018-11-22T01:13:11.411Z,1003.85
2018-11-22T01:14:11.430Z,1003.9
2018-11-22T01:15:11.445Z,1003.86
2018-11-22T01:16:11.462Z,1003.86
2018-11-22T01:17:11.479Z,1003.84
2018-11-22T01:18:11.499Z,1003.84
2018-11-22T01:19:11.515Z,1003.79
2018-11-22T01:20:11.530Z,1003.87
2018-11-22T01:21:11.548Z,1003.86
2018-11-22T01:22:11.563Z,1003.86
2018-11-22T01:23:11.582Z,1003.81
2018-11-22T01:24:11.598Z,1003.85
2018-11-22T01:25:11.616Z,1003.82
2018-11-22T01:26:11.633Z,1003.84
2018-11-22T01:27:11.651Z,1003.86
2018-11-22T01:28:11.666Z,1003.83
2018-11-22T01:29:11.683Z,1003.87
2018-11-22T01:30:11.700Z,1003.83
2018-11-22T01:31:11.718Z,1003.81
2018-11-22T01:32:11.737Z,1003.82
2018-11-22T01:33:11.752Z,1003.84
2018-11-22T01:34:11.770Z,1003.82
2018-11-22T01:35:11.787Z,1003.81
2018-11-22T01:36:11.804Z,1003.82
2018-11-22T01:37:11.821Z,1003.78
2018-11-22T01:38:11.837Z,1003.82
2018-11-22T01:39:11.855Z,1003.79
2018-11-22T01:40:11.876Z,1003.77
2018-11-22T01:41:11.893Z,1003.78
2018-11-22T01:42:11.907Z,1003.78
2018-11-22T01:43:11.922Z,1003.78
2018-11-22T01:44:11.939Z,1003.79
2018-11-22T01:45:11.961Z,1003.8
2018-11-22T01:46:11.979Z,1003.81
2018-11-22T01:47:11.990Z,1003.81
2018-11-22T01:48:12.009Z,1003.81
2018-11-22T01:49:12.026Z,1003.83
2018-11-22T01:50:12.042Z,1003.8
2018-11-22T01:51:12.059Z,1003.83
2018-11-22T01:52:12.076Z,1003.82
2018-11-22T01:53:12.094Z,1003.83
2018-11-22T01:54:12.113Z,1003.81
2018-11-22T01:55:12.131Z,1003.79
2018-11-22T01:56:12.146Z,1003.79
2018-11-22T01:57:12.166Z,1003.8
2018-11-22T01:58:12.183Z,1003.78
2018-11-22T01:59:12.197Z,1003.79
2018-11-22T02:00:12.214Z,1003.79
2018-11-22T02:01:12.233Z,1003.79
2018-11-22T02:02:12.248Z,1003.78
2018-11-22T02:03:12.269Z,1003.81
2018-11-22T02:04:12.281Z,1003.8
2018-11-22T02:05:12.297Z,1003.79
2018-11-22T02:06:12.321Z,1003.82
2018-11-22T02:07:12.337Z,1003.8
2018-11-22T02:08:12.353Z,1003.82
2018-11-22T02:09:12.367Z,1003.82
2018-11-22T02:10:12.383Z,1003.79
2018-11-22T02:11:12.401Z,1003.76
2018-11-22T02:12:12.419Z,1003.72
2018-11-22T02:13:12.435Z,1003.76
2018-11-22T02:14:12.455Z,1003.74
2018-11-22T02:15:12.468Z,1003.75
2018-11-22T02:16:12.491Z,1003.73
2018-11-22T02:17:12.504Z,1003.72
2018-11-22T02:18:12.522Z,1003.74
2018-11-22T02:19:12.543Z,1003.75
2018-11-22T02:20:12.555Z,1003.74
2018-11-22T02:21:12.572Z,1003.76
2018-11-22T02:22:12.590Z,1003.75
2018-11-22T02:23:12.607Z,1003.73
2018-11-22T02:24:12.625Z,1003.76
2018-11-22T02:25:12.642Z,1003.71
2018-11-22T02:26:12.656Z,1003.73
2018-11-22T02:27:12.678Z,1003.74
2018-11-22T02:28:12.692Z,1003.72
2018-11-22T02:29:12.714Z,1003.76
2018-11-22T02:30:12.729Z,1003.71
2018-11-22T02:31:12.742Z,1003.72
2018-11-22T02:32:12.763Z,1003.77
2018-11-22T02:33:12.781Z,1003.76
2018-11-22T02:34:12.793Z,1003.79
2018-11-22T02:35:12.811Z,1003.77
2018-11-22T02:36:12.828Z,1003.78
2018-11-22T02:37:12.849Z,1003.73
2018-11-22T02:38:12.865Z,1003.75
2018-11-22T02:39:12.883Z,1003.78
2018-11-22T02:40:12.900Z,1003.77
2018-11-22T02:41:12.916Z,1003.81
2018-11-22T02:42:12.933Z,1003.81
2018-11-22T02:43:12.946Z,1003.81
2018-11-22T02:44:12.963Z,1003.76
2018-11-22T02:45:12.981Z,1003.77
2018-11-22T02:46:12.999Z,1003.76
2018-11-22T02:47:13.017Z,1003.74
2018-11-22T02:48:13.035Z,1003.78
2018-11-22T02:49:13.049Z,1003.74
2018-11-22T02:50:13.067Z,1003.77
2018-11-22T02:51:13.084Z,1003.71
2018-11-22T02:52:13.101Z,1003.73
2018-11-22T02:53:13.116Z,1003.77
2018-11-22T02:54:13.135Z,1003.75
2018-11-22T02:55:13.150Z,1003.75
2018-11-22T02:56:13.172Z,1003.76
2018-11-22T02:57:13.185Z,1003.74
2018-11-22T02:58:13.202Z,1003.76
2018-11-22T02:59:13.218Z,1003.79
2018-11-22T03:00:13.237Z,1003.8
2018-11-22T03:01:13.254Z,1003.81
2018-11-22T03:02:13.270Z,1003.77
2018-11-22T03:03:13.292Z,1003.78
2018-11-22T03:04:13.303Z,1003.78
2018-11-22T03:05:13.328Z,1003.77
2018-11-22T03:06:13.337Z,1003.79
2018-11-22T03:07:13.356Z,1003.79
2018-11-22T03:08:13.373Z,1003.79
2018-11-22T03:09:13.393Z,1003.77
2018-11-22T03:10:13.407Z,1003.78
2018-11-22T03:11:13.423Z,1003.81
2018-11-22T03:12:13.442Z,1003.79
2018-11-22T03:13:13.462Z,1003.8
2018-11-22T03:14:13.474Z,1003.83
2018-11-22T03:15:13.496Z,1003.8
2018-11-22T03:16:13.509Z,1003.8
2018-11-22T03:17:13.524Z,1003.79
2018-11-22T03:18:13.543Z,1003.8
2018-11-22T03:19:13.561Z,1003.79
2018-11-22T03:20:13.577Z,1003.79
2018-11-22T03:21:13.596Z,1003.82
2018-11-22T03:22:13.610Z,1003.8
2018-11-22T03:23:13.632Z,1003.79
2018-11-22T03:24:13.645Z,1003.78
2018-11-22T03:25:13.663Z,1003.81
2018-11-22T03:26:13.680Z,1003.8
2018-11-22T03:27:13.696Z,1003.78
2018-11-22T03:28:13.713Z,1003.76
2018-11-22T03:29:13.731Z,1003.8
2018-11-22T03:30:13.752Z,1003.79
2018-11-22T03:31:13.766Z,1003.8
2018-11-22T03:32:13.781Z,1003.8
2018-11-22T03:33:13.798Z,1003.76
2018-11-22T03:34:13.816Z,1003.8
2018-11-22T03:35:13.838Z,1003.78
2018-11-22T03:36:13.849Z,1003.73
2018-11-22T03:37:13.866Z,1003.71
2018-11-22T03:38:13.888Z,1003.74
2018-11-22T03:39:13.915Z,1003.74
2018-11-22T03:40:13.919Z,1003.72
2018-11-22T03:41:13.939Z,1003.78
2018-11-22T03:42:13.954Z,1003.77
2018-11-22T03:43:13.974Z,1003.77
2018-11-22T03:44:13.986Z,1003.72
2018-11-22T03:45:14.011Z,1003.72
2018-11-22T03:46:14.020Z,1003.73
2018-11-22T03:47:14.037Z,1003.71
2018-11-22T03:48:14.058Z,1003.76
2018-11-22T03:49:14.073Z,1003.74
2018-11-22T03:50:14.089Z,1003.74
2018-11-22T03:51:14.110Z,1003.74
2018-11-22T03:52:14.124Z,1003.77
2018-11-22T03:53:14.145Z,1003.77
2018-11-22T03:54:14.160Z,1003.77
2018-11-22T03:55:14.175Z,1003.72
2018-11-22T03:56:14.191Z,1003.77
2018-11-22T03:57:14.207Z,1003.8
2018-11-22T03:58:14.229Z,1003.76
2018-11-22T03:59:14.241Z,1003.77
2018-11-22T04:00:14.259Z,1003.76
2018-11-22T04:01:14.275Z,1003.74
2018-11-22T04:02:14.293Z,1003.76
2018-11-22T04:03:14.309Z,1003.75
2018-11-22T04:04:14.327Z,1003.74
2018-11-22T04:05:14.344Z,1003.73
2018-11-22T04:06:14.360Z,1003.78
2018-11-22T04:07:14.381Z,1003.77
2018-11-22T04:08:14.395Z,1003.76
2018-11-22T04:09:14.416Z,1003.75
2018-11-22T04:10:14.429Z,1003.78
2018-11-22T04:11:14.451Z,1003.77
2018-11-22T04:12:14.462Z,1003.77
2018-11-22T04:13:14.479Z,1003.76
2018-11-22T04:14:14.501Z,1003.76
2018-11-22T04:15:14.514Z,1003.79
2018-11-22T04:16:14.535Z,1003.71
2018-11-22T04:17:14.551Z,1003.73
2018-11-22T04:18:14.565Z,1003.71
2018-11-22T04:19:14.584Z,1003.75
2018-11-22T04:20:14.601Z,1003.72
2018-11-22T04:21:14.617Z,1003.73
2018-11-22T04:22:14.637Z,1003.75
2018-11-22T04:23:14.649Z,1003.74
2018-11-22T04:24:14.665Z,1003.79
2018-11-22T04:25:14.688Z,1003.76
2018-11-22T04:26:14.701Z,1003.72
2018-11-22T04:27:14.716Z,1003.75
2018-11-22T04:28:14.734Z,1003.78
2018-11-22T04:29:14.796Z,1003.77
2018-11-22T04:30:14.766Z,1003.76
2018-11-22T04:31:14.784Z,1003.77
2018-11-22T04:32:14.800Z,1003.78
2018-11-22T04:33:14.817Z,1003.73
2018-11-22T04:34:14.835Z,1003.82
2018-11-22T04:35:14.856Z,1003.82
2018-11-22T04:36:14.870Z,1003.84
2018-11-22T04:37:14.886Z,1003.8
2018-11-22T04:38:14.902Z,1003.82
2018-11-22T04:39:14.921Z,1003.79
2018-11-22T04:40:14.941Z,1003.83
2018-11-22T04:41:14.959Z,1003.81
2018-11-22T04:42:14.969Z,1003.82
2018-11-22T04:43:14.988Z,1003.81
2018-11-22T04:44:15.009Z,1003.8
2018-11-22T04:45:15.024Z,1003.8
2018-11-22T04:46:15.039Z,1003.81
2018-11-22T04:47:15.056Z,1003.84
2018-11-22T04:48:15.072Z,1003.82
2018-11-22T04:49:15.092Z,1003.82
2018-11-22T04:50:15.106Z,1003.81
2018-11-22T04:51:15.124Z,1003.81
2018-11-22T04:52:15.142Z,1003.8
2018-11-22T04:53:15.155Z,1003.83
2018-11-22T04:54:15.173Z,1003.84
2018-11-22T04:55:15.195Z,1003.82
2018-11-22T04:56:15.207Z,1003.76
2018-11-22T04:57:15.223Z,1003.77
2018-11-22T04:58:15.240Z,1003.76
2018-11-22T04:59:15.261Z,1003.76
2018-11-22T05:00:15.275Z,1003.75
2018-11-22T05:01:15.295Z,1003.75
2018-11-22T05:02:15.308Z,1003.76
2018-11-22T05:03:15.324Z,1003.74
2018-11-22T05:04:15.343Z,1003.74
2018-11-22T05:05:15.364Z,1003.74
2018-11-22T05:06:15.376Z,1003.73
2018-11-22T05:07:15.402Z,1003.75
2018-11-22T05:08:15.415Z,1003.78
2018-11-22T05:09:15.427Z,1003.74
2018-11-22T05:10:15.442Z,1003.71
2018-11-22T05:11:15.460Z,1003.7
2018-11-22T05:12:15.478Z,1003.7
2018-11-22T05:13:15.494Z,1003.72
2018-11-22T05:14:15.510Z,1003.71
2018-11-22T05:15:15.527Z,1003.75
2018-11-22T05:16:15.546Z,1003.71
2018-11-22T05:17:15.565Z,1003.73
2018-11-22T05:18:15.577Z,1003.69
2018-11-22T05:19:15.598Z,1003.7
2018-11-22T05:20:15.616Z,1003.73
2018-11-22T05:21:15.629Z,1003.74
2018-11-22T05:22:15.646Z,1003.69
2018-11-22T05:23:15.664Z,1003.66
2018-11-22T05:24:15.681Z,1003.68
2018-11-22T05:25:15.703Z,1003.7
2018-11-22T05:26:15.715Z,1003.69
2018-11-22T05:27:15.733Z,1003.67
2018-11-22T05:28:15.748Z,1003.71
2018-11-22T05:29:15.763Z,1003.69
2018-11-22T05:30:15.782Z,1003.69
2018-11-22T05:31:15.799Z,1003.71
2018-11-22T05:32:15.815Z,1003.69
2018-11-22T05:33:15.831Z,1003.69
2018-11-22T05:34:15.852Z,1003.7
2018-11-22T05:35:15.866Z,1003.69
2018-11-22T05:36:15.882Z,1003.72
2018-11-22T05:37:15.900Z,1003.75
2018-11-22T05:38:15.916Z,1003.75
2018-11-22T05:39:15.939Z,1003.73
2018-11-22T05:40:15.953Z,1003.69
2018-11-22T05:41:15.967Z,1003.77
2018-11-22T05:42:15.984Z,1003.76
2018-11-22T05:43:16.004Z,1003.71
2018-11-22T05:44:16.018Z,1003.75
2018-11-22T05:45:16.034Z,1003.78
2018-11-22T05:46:16.051Z,1003.75
2018-11-22T05:47:16.068Z,1003.76
2018-11-22T05:48:16.087Z,1003.76
2018-11-22T05:49:16.106Z,1003.76
2018-11-22T05:50:16.121Z,1003.75
2018-11-22T05:51:16.139Z,1003.76
2018-11-22T05:52:16.154Z,1003.73
2018-11-22T05:53:16.170Z,1003.77
2018-11-22T05:54:16.188Z,1003.73
2018-11-22T05:55:16.204Z,1003.73
2018-11-22T05:56:16.221Z,1003.75
2018-11-22T05:57:16.239Z,1003.73
2018-11-22T05:58:16.258Z,1003.72
2018-11-22T05:59:16.272Z,1003.8
2018-11-22T06:00:16.289Z,1003.81
2018-11-22T06:01:16.437Z,1003.81
2018-11-22T06:02:16.321Z,1003.79
2018-11-22T06:03:16.340Z,1003.79
2018-11-22T06:04:16.361Z,1003.78
2018-11-22T06:05:16.372Z,1003.84
2018-11-22T06:06:16.390Z,1003.83
2018-11-22T06:07:16.408Z,1003.8
2018-11-22T06:08:16.428Z,1003.8
2018-11-22T06:09:16.441Z,1003.77
2018-11-22T06:10:16.456Z,1003.75
2018-11-22T06:11:16.474Z,1003.79
2018-11-22T06:12:16.493Z,1003.76
2018-11-22T06:13:16.516Z,1003.73
2018-11-22T06:14:16.528Z,1003.77
2018-11-22T06:15:16.543Z,1003.8
2018-11-22T06:16:16.560Z,1003.79
2018-11-22T06:17:16.580Z,1003.75
2018-11-22T06:18:16.599Z,1003.78
2018-11-22T06:19:16.609Z,1003.79
2018-11-22T06:20:16.627Z,1003.77
2018-11-22T06:21:16.645Z,1003.77
2018-11-22T06:22:16.662Z,1003.79
2018-11-22T06:23:16.679Z,1003.81
2018-11-22T06:24:16.694Z,1003.79
2018-11-22T06:25:16.713Z,1003.8
2018-11-22T06:26:16.730Z,1003.84
2018-11-22T06:27:16.748Z,1003.84
2018-11-22T06:28:16.763Z,1003.79
2018-11-22T06:29:16.783Z,1003.85
2018-11-22T06:30:16.797Z,1003.84
2018-11-22T06:31:16.813Z,1003.84
2018-11-22T06:32:16.829Z,1003.87
2018-11-22T06:33:16.848Z,1003.86
2018-11-22T06:34:16.864Z,1003.85
2018-11-22T06:35:16.884Z,1003.87
2018-11-22T06:36:16.902Z,1003.85
2018-11-22T06:37:16.919Z,1003.87
2018-11-22T06:38:16.931Z,1003.87
2018-11-22T06:39:16.950Z,1003.91
2018-11-22T06:40:16.965Z,1003.87
2018-11-22T06:41:16.987Z,1003.87
2018-11-22T06:42:16.999Z,1003.88
2018-11-22T06:43:17.016Z,1003.88
2018-11-22T06:44:17.037Z,1003.86
2018-11-22T06:45:17.054Z,1003.9
2018-11-22T06:46:17.067Z,1003.88
2018-11-22T06:47:17.085Z,1003.89
2018-11-22T06:48:17.105Z,1003.92
2018-11-22T06:49:17.122Z,1003.9
2018-11-22T06:50:17.134Z,1003.89
2018-11-22T06:51:17.151Z,1003.86
2018-11-22T06:52:17.170Z,1003.88
2018-11-22T06:53:17.185Z,1003.84
2018-11-22T06:54:17.206Z,1003.92
2018-11-22T06:55:17.219Z,1003.87
2018-11-22T06:56:17.236Z,1003.85
2018-11-22T06:57:17.254Z,1003.87
2018-11-22T06:58:17.272Z,1003.86
2018-11-22T06:59:17.293Z,1003.86
2018-11-22T07:00:17.314Z,1003.85
2018-11-22T07:01:17.322Z,1003.84
2018-11-22T07:02:17.339Z,1003.86
2018-11-22T07:03:17.355Z,1003.85
2018-11-22T07:04:17.377Z,1003.88
2018-11-22T07:05:17.389Z,1003.9
2018-11-22T07:06:17.407Z,1003.87
2018-11-22T07:07:17.424Z,1003.92
2018-11-22T07:08:17.444Z,1003.89
2018-11-22T07:09:17.458Z,1003.88
2018-11-22T07:10:17.478Z,1003.91
2018-11-22T07:11:17.490Z,1003.9
2018-11-22T07:12:17.507Z,1003.95
2018-11-22T07:13:17.527Z,1003.94
2018-11-22T07:14:17.547Z,1003.95
2018-11-22T07:15:17.559Z,1003.97
2018-11-22T07:16:17.576Z,1003.94
2018-11-22T07:17:17.594Z,1003.94
2018-11-22T07:18:17.615Z,1003.93
2018-11-22T07:19:17.625Z,1003.94
2018-11-22T07:20:17.643Z,1003.92
2018-11-22T07:21:17.661Z,1003.9
2018-11-22T07:22:18.886Z,1003.93
2018-11-22T07:23:17.695Z,1003.94
2018-11-22T07:24:17.711Z,1003.93
2018-11-22T07:25:17.728Z,1003.91
2018-11-22T07:26:17.745Z,1003.93
2018-11-22T07:27:17.763Z,1003.9
2018-11-22T07:28:17.780Z,1003.91
2018-11-22T07:29:17.796Z,1003.89
2018-11-22T07:30:17.813Z,1003.87
2018-11-22T07:31:17.830Z,1003.89
2018-11-22T07:32:17.847Z,1003.93
2018-11-22T07:33:17.865Z,1003.9
2018-11-22T07:34:17.881Z,1003.9
2018-11-22T07:35:17.897Z,1003.9
2018-11-22T07:36:17.916Z,1003.9
2018-11-22T07:37:17.931Z,1003.89
2018-11-22T07:38:17.948Z,1003.87
2018-11-22T07:39:17.970Z,1003.85
2018-11-22T07:40:17.983Z,1003.88
2018-11-22T07:41:18.000Z,1003.85
2018-11-22T07:42:18.021Z,1003.84
2018-11-22T07:43:18.039Z,1003.86
2018-11-22T07:44:18.054Z,1003.83
2018-11-22T07:45:18.069Z,1003.87
2018-11-22T07:46:18.084Z,1003.92
2018-11-22T07:47:18.100Z,1003.9
2018-11-22T07:48:18.122Z,1003.93
2018-11-22T07:49:18.135Z,1003.92
2018-11-22T07:50:18.156Z,1003.92
2018-11-22T07:51:18.169Z,1003.92
2018-11-22T07:52:18.188Z,1003.92
2018-11-22T07:53:18.207Z,1003.97
2018-11-22T07:54:18.220Z,1003.9
2018-11-22T07:55:18.235Z,1003.86
2018-11-22T07:56:18.255Z,1003.91
2018-11-22T07:57:18.271Z,1003.94
2018-11-22T07:58:18.293Z,1003.92
2018-11-22T07:59:18.305Z,1003.95
2018-11-22T08:00:18.326Z,1003.93
2018-11-22T08:01:18.339Z,1003.95
2018-11-22T08:02:18.354Z,1003.92
2018-11-22T08:03:18.373Z,1003.92
2018-11-22T08:04:18.393Z,1003.91
2018-11-22T08:05:18.407Z,1003.93
2018-11-22T08:06:18.424Z,1003.91
2018-11-22T08:07:18.441Z,1003.88
2018-11-22T08:08:18.461Z,1003.89
2018-11-22T08:09:18.474Z,1003.9
2018-11-22T08:10:18.492Z,1003.92
2018-11-22T08:11:18.512Z,1003.87
2018-11-22T08:12:18.660Z,1003.85
2018-11-22T08:13:18.546Z,1003.89
2018-11-22T08:14:18.559Z,1003.91
2018-11-22T08:15:18.575Z,1003.93
2018-11-22T08:16:18.594Z,1003.92
2018-11-22T08:17:18.610Z,1003.91
2018-11-22T08:18:18.630Z,1003.95
2018-11-22T08:19:18.647Z,1003.94
2018-11-22T08:20:18.660Z,1003.91
2018-11-22T08:21:18.677Z,1003.9
2018-11-22T08:22:18.696Z,1003.91
2018-11-22T08:23:18.711Z,1003.93
2018-11-22T08:24:18.730Z,1003.96
2018-11-22T08:25:18.750Z,1003.95
2018-11-22T08:26:18.763Z,1003.95
2018-11-22T08:27:18.784Z,1003.98
2018-11-22T08:28:18.800Z,1003.99
2018-11-22T08:29:18.813Z,1003.99
2018-11-22T08:30:18.831Z,1003.98
2018-11-22T08:31:18.849Z,1003.99
2018-11-22T08:32:18.867Z,1004.02
2018-11-22T08:33:18.881Z,1004.02
2018-11-22T08:34:18.904Z,1004.03
2018-11-22T08:35:18.925Z,1004.02
2018-11-22T08:36:18.934Z,1004.04
2018-11-22T08:37:18.950Z,1004.02
2018-11-22T08:38:18.971Z,1004.03
2018-11-22T08:39:18.984Z,1004.08
2018-11-22T08:40:19.002Z,1004.05
2018-11-22T08:41:19.018Z,1004.07
2018-11-22T08:42:19.038Z,1004.09
2018-11-22T08:43:19.052Z,1004.09
2018-11-22T08:44:19.069Z,1004.1
2018-11-22T08:45:19.087Z,1004.11
2018-11-22T08:46:19.105Z,1004.12
2018-11-22T08:47:19.120Z,1004.15
2018-11-22T08:48:19.137Z,1004.14
2018-11-22T08:49:19.158Z,1004.14
2018-11-22T08:50:19.171Z,1004.14
2018-11-22T08:51:19.189Z,1004.13
2018-11-22T08:52:19.208Z,1004.15
2018-11-22T08:53:19.227Z,1004.16
2018-11-22T08:54:19.239Z,1004.19
2018-11-22T08:55:19.256Z,1004.22
2018-11-22T08:56:19.273Z,1004.18
2018-11-22T08:57:19.293Z,1004.19
2018-11-22T08:58:19.504Z,1004.18
2018-11-22T08:59:19.328Z,1004.15
2018-11-22T09:00:19.344Z,1004.15
2018-11-22T09:01:19.386Z,1004.13
2018-11-22T09:02:19.375Z,1004.1
2018-11-22T09:03:19.395Z,1004.11
2018-11-22T09:04:19.408Z,1004.14
2018-11-22T09:05:19.427Z,1004.13
2018-11-22T09:06:19.442Z,1004.12
2018-11-22T09:07:19.465Z,1004.14
2018-11-22T09:08:19.476Z,1004.11
2018-11-22T09:09:19.496Z,1004.14
2018-11-22T09:10:19.514Z,1004.14
2018-11-22T09:11:19.528Z,1004.17
2018-11-22T09:12:19.547Z,1004.13
2018-11-22T09:13:19.560Z,1004.14
2018-11-22T09:14:19.582Z,1004.17
2018-11-22T09:15:19.599Z,1004.17
2018-11-22T09:16:19.612Z,1004.11
2018-11-22T09:17:19.632Z,1004.18
2018-11-22T09:18:19.646Z,1004.17
2018-11-22T09:19:19.662Z,1004.16
2018-11-22T09:20:19.685Z,1004.1
2018-11-22T09:21:19.701Z,1004.16
2018-11-22T09:22:19.714Z,1004.15
2018-11-22T09:23:19.732Z,1004.19
2018-11-22T09:24:24.064Z,1004.17
2018-11-22T09:25:19.765Z,1004.2
2018-11-22T09:26:19.785Z,1004.17
2018-11-22T09:27:19.803Z,1004.18
2018-11-22T09:28:19.816Z,1004.19
2018-11-22T09:29:19.833Z,1004.19
2018-11-22T09:30:19.850Z,1004.18
2018-11-22T09:31:19.867Z,1004.17
2018-11-22T09:32:19.884Z,1004.21
2018-11-22T09:33:19.901Z,1004.22
2018-11-22T09:34:19.922Z,1004.2
2018-11-22T09:35:20.031Z,1004.21
2018-11-22T09:36:19.956Z,1004.24
2018-11-22T09:37:19.968Z,1004.26
2018-11-22T09:38:19.991Z,1004.22
2018-11-22T09:39:20.003Z,1004.28
2018-11-22T09:40:20.019Z,1004.31
2018-11-22T09:41:20.036Z,1004.28
2018-11-22T09:42:20.157Z,1004.26
2018-11-22T09:43:20.069Z,1004.28
2018-11-22T09:44:20.088Z,1004.29
2018-11-22T09:45:20.104Z,1004.28
2018-11-22T09:46:20.127Z,1004.27
2018-11-22T09:47:20.141Z,1004.23
2018-11-22T09:48:20.156Z,1004.24
2018-11-22T09:49:20.172Z,1004.2
2018-11-22T09:50:20.189Z,1004.22
2018-11-22T09:51:20.221Z,1004.22
2018-11-22T09:52:20.222Z,1004.16
2018-11-22T09:53:20.239Z,1004.21
2018-11-22T09:54:20.260Z,1004.19
2018-11-22T09:55:20.274Z,1004.21
2018-11-22T09:56:20.294Z,1004.19
2018-11-22T09:57:20.311Z,1004.2
2018-11-22T09:58:20.324Z,1004.26
2018-11-22T09:59:20.547Z,1004.22
2018-11-22T10:00:20.364Z,1004.22
2018-11-22T10:01:20.381Z,1004.27
2018-11-22T10:02:20.393Z,1004.22
2018-11-22T10:03:20.411Z,1004.22
2018-11-22T10:04:20.428Z,1004.23
2018-11-22T10:05:20.571Z,1004.26
2018-11-22T10:06:20.468Z,1004.22
2018-11-22T10:07:20.480Z,1004.21
2018-11-22T10:08:20.505Z,1004.2
2018-11-22T10:09:20.587Z,1004.2
2018-11-22T10:10:20.535Z,1004.19
2018-11-22T10:11:20.549Z,1004.21
2018-11-22T10:12:20.569Z,1004.2
2018-11-22T10:13:20.588Z,1004.22
2018-11-22T10:14:20.600Z,1004.16
2018-11-22T10:15:20.617Z,1004.16
2018-11-22T10:16:20.635Z,1004.19
2018-11-22T10:17:20.652Z,1004.16
2018-11-22T10:18:20.759Z,1004.18
2018-11-22T10:19:20.687Z,1004.13
2018-11-22T10:20:20.707Z,1004.15
2018-11-22T10:21:20.720Z,1004.18
2018-11-22T10:22:20.742Z,1004.14
2018-11-22T10:23:20.759Z,1004.11
2018-11-22T10:24:20.812Z,1004.17
2018-11-22T10:25:20.791Z,1004.13
2018-11-22T10:26:20.805Z,1004.17
2018-11-22T10:27:20.823Z,1004.13
2018-11-22T10:28:20.843Z,1004.14
2018-11-22T10:29:20.914Z,1004.15
2018-11-22T10:30:20.986Z,1004.15
2018-11-22T10:31:20.893Z,1004.15
2018-11-22T10:32:20.909Z,1004.19
2018-11-22T10:33:20.927Z,1004.13
2018-11-22T10:34:20.945Z,1004.17
2018-11-22T10:35:21.115Z,1004.18
2018-11-22T10:36:20.979Z,1004.13
2018-11-22T10:37:20.995Z,1004.16
2018-11-22T10:38:21.069Z,1004.13
2018-11-22T10:39:21.030Z,1004.16
2018-11-22T10:40:21.056Z,1004.15
2018-11-22T10:41:21.066Z,1004.16
2018-11-22T10:42:21.105Z,1004.17
2018-11-22T10:43:21.098Z,1004.19
2018-11-22T10:44:21.124Z,1004.18
2018-11-22T10:45:21.132Z,1004.17
2018-11-22T10:46:21.155Z,1004.19
2018-11-22T10:47:21.167Z,1004.14
2018-11-22T10:48:21.184Z,1004.17
2018-11-22T10:49:21.208Z,1004.12
2018-11-22T10:50:21.222Z,1004.15
2018-11-22T10:51:21.237Z,1004.13
2018-11-22T10:52:21.253Z,1004.13
2018-11-22T10:53:21.271Z,1004.14
2018-11-22T10:54:21.292Z,1004.16
2018-11-22T10:55:21.302Z,1004.13
2018-11-22T10:56:21.321Z,1004.17
2018-11-22T10:57:21.338Z,1004.18
2018-11-22T10:58:21.356Z,1004.15
2018-11-22T10:59:21.374Z,1004.17
2018-11-22T11:00:21.390Z,1004.16
2018-11-22T11:01:21.406Z,1004.14
2018-11-22T11:02:21.837Z,1004.13
2018-11-22T11:03:21.484Z,1004.13
2018-11-22T11:04:21.477Z,1004.17
2018-11-22T11:05:21.475Z,1004.15
2018-11-22T11:06:21.493Z,1004.17
2018-11-22T11:07:21.510Z,1004.17
2018-11-22T11:08:21.527Z,1004.15
2018-11-22T11:09:21.548Z,1004.18
2018-11-22T11:10:21.560Z,1004.18
2018-11-22T11:11:21.580Z,1004.19
2018-11-22T11:12:25.417Z,1004.19
2018-11-22T11:13:21.613Z,1004.15
2018-11-22T11:14:21.629Z,1004.17
2018-11-22T11:15:21.648Z,1004.18
2018-11-22T11:16:21.667Z,1004.17
2018-11-22T11:17:21.684Z,1004.16
2018-11-22T11:18:21.700Z,1004.13
2018-11-22T11:19:21.716Z,1004.17
2018-11-22T11:20:21.731Z,1004.14
2018-11-22T11:21:21.758Z,1004.16
2018-11-22T11:22:21.769Z,1004.13
2018-11-22T11:23:21.783Z,1004.14
2018-11-22T11:24:21.805Z,1004.13
2018-11-22T11:25:21.818Z,1004.14
2018-11-22T11:26:21.859Z,1004.11
2018-11-22T11:27:21.851Z,1004.11
2018-11-22T11:28:21.868Z,1004.12
2018-11-22T11:29:21.886Z,1004.09
2018-11-22T11:30:21.906Z,1004.07
2018-11-22T11:31:21.919Z,1004.06
2018-11-22T11:32:21.937Z,1004.09
2018-11-22T11:33:21.954Z,1004.08
2018-11-22T11:34:21.975Z,1004.06
2018-11-22T11:35:21.987Z,1004.03
2018-11-22T11:36:22.009Z,1004.04
2018-11-22T11:37:22.023Z,1004.06
2018-11-22T11:38:22.038Z,1004
2018-11-22T11:39:22.056Z,1004.05
2018-11-22T11:40:22.074Z,1004.05
2018-11-22T11:41:22.090Z,1004.02
2018-11-22T11:42:22.107Z,1004.03
2018-11-22T11:43:22.124Z,1004.01
2018-11-22T11:44:22.141Z,1004.02
2018-11-22T11:45:22.158Z,1004
2018-11-22T11:46:22.331Z,1004.03
2018-11-22T11:47:22.194Z,1004.02
2018-11-22T11:48:22.211Z,1004.02
2018-11-22T11:49:22.228Z,1003.98
2018-11-22T11:50:22.244Z,1004.05
2018-11-22T11:51:22.261Z,1004
2018-11-22T11:52:22.278Z,1004.04
2018-11-22T11:53:27.075Z,1004.03
2018-11-22T11:54:22.317Z,1003.99
2018-11-22T11:55:22.329Z,1004.04
2018-11-22T11:56:22.346Z,1004.02
2018-11-22T11:57:22.365Z,1004
2018-11-22T11:58:22.385Z,1004.04
2018-11-22T11:59:22.398Z,1004.01
2018-11-22T12:00:22.415Z,1003.99
2018-11-22T12:01:22.436Z,1003.99
2018-11-22T12:02:22.450Z,1003.98
2018-11-22T12:03:22.465Z,1003.96
2018-11-22T12:04:22.488Z,1003.99
2018-11-22T12:05:22.500Z,1003.98
2018-11-22T12:06:22.517Z,1003.97
2018-11-22T12:07:22.533Z,1003.97
2018-11-22T12:08:22.555Z,1003.97